Terminal Aerodrome Forecast
Issued by NWS

Home | Current Version | Previous Version | Graphics & Text | Print | Product List | Glossary On
Versions: 1 2 3 4 5 6 7 8 9 10 11 12 13 14 15 16 17
000
FTUS43 KIWX 262300
TAFSBN
TAF
KSBN 262338Z 2700/2724 32005KT P6SM SCT008
      TEMPO 2700/2702 BKN008
     FM270500 03003KT P6SM SCT150
     FM271400 01007KT P6SM SCT040 BKN100=

USA.gov is the U.S. government's official web portal to all federal, state and local government web resources and services.